sensor_id;sensor_type;location;lat;lon;timestamp;temperature;humidity
24638;DHT22;12773;50.162;8.548;2023-02-11T00:00:57;3.10;99.90
24638;DHT22;12773;50.162;8.548;2023-02-11T00:03:44;3.20;99.90
24638;DHT22;12773;50.162;8.548;2023-02-11T00:06:33;3.30;99.90
24638;DHT22;12773;50.162;8.548;2023-02-11T00:09:20;3.20;99.90
24638;DHT22;12773;50.162;8.548;2023-02-11T00:12:08;3.30;99.90
24638;DHT22;12773;50.162;8.548;2023-02-11T00:14:55;3.40;99.90
24638;DHT22;12773;50.162;8.548;2023-02-11T00:17:43;3.50;99.90
24638;DHT22;12773;50.162;8.548;2023-02-11T00:20:30;3.70;99.90
24638;DHT22;12773;50.162;8.548;2023-02-11T00:23:17;3.70;99.90
24638;DHT22;12773;50.162;8.548;2023-02-11T00:26:14;3.80;99.90
24638;DHT22;12773;50.162;8.548;2023-02-11T00:29:02;3.80;99.90
24638;DHT22;12773;50.162;8.548;2023-02-11T00:31:50;3.90;99.90
24638;DHT22;12773;50.162;8.548;2023-02-11T00:34:38;4.00;99.90
24638;DHT22;12773;50.162;8.548;2023-02-11T00:37:26;4.00;99.90
24638;DHT22;12773;50.162;8.548;2023-02-11T00:40:14;4.10;99.90
24638;DHT22;12773;50.162;8.548;2023-02-11T00:43:01;4.10;99.90
24638;DHT22;12773;50.162;8.548;2023-02-11T00:45:48;4.00;99.90
24638;DHT22;12773;50.162;8.548;2023-02-11T00:48:36;4.10;99.90
24638;DHT22;12773;50.162;8.548;2023-02-11T00:51:25;4.10;99.90
24638;DHT22;12773;50.162;8.548;2023-02-11T00:54:13;4.20;99.90
24638;DHT22;12773;50.162;8.548;2023-02-11T00:57:00;4.20;99.90
24638;DHT22;12773;50.162;8.548;2023-02-11T00:59:48;4.30;99.90
24638;DHT22;12773;50.162;8.548;2023-02-11T01:02:36;4.30;99.90
24638;DHT22;12773;50.162;8.548;2023-02-11T01:05:23;4.30;99.90
24638;DHT22;12773;50.162;8.548;2023-02-11T01:08:11;4.20;99.90
24638;DHT22;12773;50.162;8.548;2023-02-11T01:11:01;4.20;99.90
24638;DHT22;12773;50.162;8.548;2023-02-11T01:13:49;4.00;99.90
24638;DHT22;12773;50.162;8.548;2023-02-11T01:16:37;3.90;99.90
24638;DHT22;12773;50.162;8.548;2023-02-11T01:19:24;3.80;99.90
24638;DHT22;12773;50.162;8.548;2023-02-11T01:22:12;3.90;99.90
24638;DHT22;12773;50.162;8.548;2023-02-11T01:24:59;3.90;99.90
24638;DHT22;12773;50.162;8.548;2023-02-11T01:27:47;3.80;99.90
24638;DHT22;12773;50.162;8.548;2023-02-11T01:30:35;3.70;99.90
24638;DHT22;12773;50.162;8.548;2023-02-11T01:33:23;3.90;99.90
24638;DHT22;12773;50.162;8.548;2023-02-11T01:36:11;3.90;99.90
24638;DHT22;12773;50.162;8.548;2023-02-11T01:38:58;4.10;99.90
24638;DHT22;12773;50.162;8.548;2023-02-11T01:41:45;4.20;99.90
24638;DHT22;12773;50.162;8.548;2023-02-11T01:44:36;4.10;99.90
24638;DHT22;12773;50.162;8.548;2023-02-11T01:47:23;4.00;99.90
24638;DHT22;12773;50.162;8.548;2023-02-11T01:50:11;3.90;99.90
24638;DHT22;12773;50.162;8.548;2023-02-11T01:52:59;4.10;99.90
24638;DHT22;12773;50.162;8.548;2023-02-11T01:55:49;4.30;99.90
24638;DHT22;12773;50.162;8.548;2023-02-11T01:58:59;4.40;99.90
24638;DHT22;12773;50.162;8.548;2023-02-11T02:01:51;4.50;99.90
24638;DHT22;12773;50.162;8.548;2023-02-11T02:04:47;4.50;99.90
24638;DHT22;12773;50.162;8.548;2023-02-11T02:07:40;4.60;99.90
24638;DHT22;12773;50.162;8.548;2023-02-11T02:10:28;4.70;99.90
24638;DHT22;12773;50.162;8.548;2023-02-11T02:13:17;4.70;99.90
24638;DHT22;12773;50.162;8.548;2023-02-11T02:16:06;4.70;99.90
24638;DHT22;12773;50.162;8.548;2023-02-11T02:38:37;4.10;99.90
24638;DHT22;12773;50.162;8.548;2023-02-11T02:41:30;3.80;99.90
24638;DHT22;12773;50.162;8.548;2023-02-11T02:44:19;3.80;99.90
24638;DHT22;12773;50.162;8.548;2023-02-11T02:47:06;3.70;99.90
24638;DHT22;12773;50.162;8.548;2023-02-11T02:49:54;3.70;99.90
24638;DHT22;12773;50.162;8.548;2023-02-11T02:55:49;3.60;99.90
24638;DHT22;12773;50.162;8.548;2023-02-11T02:59:01;3.50;99.90
24638;DHT22;12773;50.162;8.548;2023-02-11T03:02:06;3.50;99.90
24638;DHT22;12773;50.162;8.548;2023-02-11T03:04:56;3.60;99.90
24638;DHT22;12773;50.162;8.548;2023-02-11T03:07:58;3.80;99.90
24638;DHT22;12773;50.162;8.548;2023-02-11T03:10:49;3.90;99.90
24638;DHT22;12773;50.162;8.548;2023-02-11T03:13:38;4.00;99.90
24638;DHT22;12773;50.162;8.548;2023-02-11T03:16:27;4.10;99.90
24638;DHT22;12773;50.162;8.548;2023-02-11T03:19:22;4.30;99.90
24638;DHT22;12773;50.162;8.548;2023-02-11T03:22:21;4.50;99.90
24638;DHT22;12773;50.162;8.548;2023-02-11T03:25:04;4.60;99.90
24638;DHT22;12773;50.162;8.548;2023-02-11T03:28:00;4.70;99.90
24638;DHT22;12773;50.162;8.548;2023-02-11T03:30:55;4.80;99.90
24638;DHT22;12773;50.162;8.548;2023-02-11T03:33:52;4.90;99.90
24638;DHT22;12773;50.162;8.548;2023-02-11T03:36:50;4.90;99.90
24638;DHT22;12773;50.162;8.548;2023-02-11T03:39:40;4.80;99.90
24638;DHT22;12773;50.162;8.548;2023-02-11T03:42:42;4.60;99.90
24638;DHT22;12773;50.162;8.548;2023-02-11T03:45:30;4.60;99.90
24638;DHT22;12773;50.162;8.548;2023-02-11T03:48:35;4.50;99.90
24638;DHT22;12773;50.162;8.548;2023-02-11T03:51:19;4.30;99.90
24638;DHT22;12773;50.162;8.548;2023-02-11T03:54:10;4.20;99.90
24638;DHT22;12773;50.162;8.548;2023-02-11T03:57:00;4.00;99.90
24638;DHT22;12773;50.162;8.548;2023-02-11T03:59:58;3.90;99.90
24638;DHT22;12773;50.162;8.548;2023-02-11T04:02:46;3.80;99.90
24638;DHT22;12773;50.162;8.548;2023-02-11T04:05:34;3.60;99.90
24638;DHT22;12773;50.162;8.548;2023-02-11T04:08:21;3.50;99.90
24638;DHT22;12773;50.162;8.548;2023-02-11T04:11:08;3.40;99.90
24638;DHT22;12773;50.162;8.548;2023-02-11T04:13:56;3.50;99.90
24638;DHT22;12773;50.162;8.548;2023-02-11T04:16:43;3.50;99.90
24638;DHT22;12773;50.162;8.548;2023-02-11T04:19:31;3.60;99.90
24638;DHT22;12773;50.162;8.548;2023-02-11T04:22:18;3.70;99.90
24638;DHT22;12773;50.162;8.548;2023-02-11T04:25:07;3.70;99.90
24638;DHT22;12773;50.162;8.548;2023-02-11T04:27:54;3.70;99.90
24638;DHT22;12773;50.162;8.548;2023-02-11T04:30:42;3.70;99.90
24638;DHT22;12773;50.162;8.548;2023-02-11T04:33:29;3.80;99.90
24638;DHT22;12773;50.162;8.548;2023-02-11T04:36:16;3.90;99.90
24638;DHT22;12773;50.162;8.548;2023-02-11T04:39:04;4.00;99.90
24638;DHT22;12773;50.162;8.548;2023-02-11T04:41:51;3.90;99.90
24638;DHT22;12773;50.162;8.548;2023-02-11T04:44:39;4.00;99.90
24638;DHT22;12773;50.162;8.548;2023-02-11T04:47:26;4.00;99.90
24638;DHT22;12773;50.162;8.548;2023-02-11T04:50:14;4.10;99.90
24638;DHT22;12773;50.162;8.548;2023-02-11T04:53:01;4.20;99.90
24638;DHT22;12773;50.162;8.548;2023-02-11T04:55:49;4.20;99.90
24638;DHT22;12773;50.162;8.548;2023-02-11T04:58:37;4.20;99.90
24638;DHT22;12773;50.162;8.548;2023-02-11T05:01:25;4.30;99.90
24638;DHT22;12773;50.162;8.548;2023-02-11T05:04:12;4.40;99.90
24638;DHT22;12773;50.162;8.548;2023-02-11T05:06:59;4.40;99.90
24638;DHT22;12773;50.162;8.548;2023-02-11T05:09:46;4.40;99.90
24638;DHT22;12773;50.162;8.548;2023-02-11T05:12:33;4.30;99.90
24638;DHT22;12773;50.162;8.548;2023-02-11T05:15:21;4.40;99.90
24638;DHT22;12773;50.162;8.548;2023-02-11T05:18:08;4.30;99.90
24638;DHT22;12773;50.162;8.548;2023-02-11T05:20:55;4.10;99.90
24638;DHT22;12773;50.162;8.548;2023-02-11T05:23:44;3.90;99.90
24638;DHT22;12773;50.162;8.548;2023-02-11T05:26:32;3.80;99.90
24638;DHT22;12773;50.162;8.548;2023-02-11T05:29:19;3.90;99.90
24638;DHT22;12773;50.162;8.548;2023-02-11T05:32:06;4.00;99.90
24638;DHT22;12773;50.162;8.548;2023-02-11T05:34:54;4.10;99.90
24638;DHT22;12773;50.162;8.548;2023-02-11T05:37:41;4.20;99.90
24638;DHT22;12773;50.162;8.548;2023-02-11T05:40:29;4.30;99.90
24638;DHT22;12773;50.162;8.548;2023-02-11T05:43:16;4.40;99.90
24638;DHT22;12773;50.162;8.548;2023-02-11T05:46:04;4.40;99.90
24638;DHT22;12773;50.162;8.548;2023-02-11T05:48:52;4.30;99.90
24638;DHT22;12773;50.162;8.548;2023-02-11T05:51:39;4.40;99.90
24638;DHT22;12773;50.162;8.548;2023-02-11T05:54:27;4.50;99.90
24638;DHT22;12773;50.162;8.548;2023-02-11T05:57:14;4.50;99.90
24638;DHT22;12773;50.162;8.548;2023-02-11T06:00:03;4.30;99.90
24638;DHT22;12773;50.162;8.548;2023-02-11T06:02:51;4.20;99.90
24638;DHT22;12773;50.162;8.548;2023-02-11T06:05:39;4.20;99.90
24638;DHT22;12773;50.162;8.548;2023-02-11T06:08:28;4.20;99.90
24638;DHT22;12773;50.162;8.548;2023-02-11T06:11:16;4.00;99.90
24638;DHT22;12773;50.162;8.548;2023-02-11T06:14:03;3.90;99.90
24638;DHT22;12773;50.162;8.548;2023-02-11T06:16:51;3.90;99.90
24638;DHT22;12773;50.162;8.548;2023-02-11T06:19:38;3.90;99.90
24638;DHT22;12773;50.162;8.548;2023-02-11T06:22:26;4.10;99.90
24638;DHT22;12773;50.162;8.548;2023-02-11T06:25:14;4.20;99.90
24638;DHT22;12773;50.162;8.548;2023-02-11T06:28:01;4.20;99.90
24638;DHT22;12773;50.162;8.548;2023-02-11T06:30:49;4.10;99.90
24638;DHT22;12773;50.162;8.548;2023-02-11T06:33:37;3.90;99.90
24638;DHT22;12773;50.162;8.548;2023-02-11T06:36:24;3.70;99.90
24638;DHT22;12773;50.162;8.548;2023-02-11T06:39:12;3.60;99.90
24638;DHT22;12773;50.162;8.548;2023-02-11T06:42:00;3.60;99.90
24638;DHT22;12773;50.162;8.548;2023-02-11T06:44:48;3.60;99.90
24638;DHT22;12773;50.162;8.548;2023-02-11T06:47:35;3.70;99.90
24638;DHT22;12773;50.162;8.548;2023-02-11T06:50:23;3.80;99.90
24638;DHT22;12773;50.162;8.548;2023-02-11T06:53:10;3.70;99.90
24638;DHT22;12773;50.162;8.548;2023-02-11T06:56:06;3.50;99.90
24638;DHT22;12773;50.162;8.548;2023-02-11T06:58:55;3.50;99.90
24638;DHT22;12773;50.162;8.548;2023-02-11T07:01:43;3.30;99.90
24638;DHT22;12773;50.162;8.548;2023-02-11T07:04:31;3.20;99.90
24638;DHT22;12773;50.162;8.548;2023-02-11T07:07:19;3.10;99.90
24638;DHT22;12773;50.162;8.548;2023-02-11T07:10:06;3.00;99.90
24638;DHT22;12773;50.162;8.548;2023-02-11T07:12:54;3.10;99.90
24638;DHT22;12773;50.162;8.548;2023-02-11T07:15:42;3.00;99.90
24638;DHT22;12773;50.162;8.548;2023-02-11T07:18:29;3.10;99.90
24638;DHT22;12773;50.162;8.548;2023-02-11T07:21:19;3.20;99.90
24638;DHT22;12773;50.162;8.548;2023-02-11T07:24:08;3.30;99.90
24638;DHT22;12773;50.162;8.548;2023-02-11T07:26:56;3.30;99.90
24638;DHT22;12773;50.162;8.548;2023-02-11T07:29:44;3.30;99.90
24638;DHT22;12773;50.162;8.548;2023-02-11T07:32:32;3.30;99.90
24638;DHT22;12773;50.162;8.548;2023-02-11T07:35:19;3.20;99.90
24638;DHT22;12773;50.162;8.548;2023-02-11T07:38:07;3.30;99.90
24638;DHT22;12773;50.162;8.548;2023-02-11T07:40:58;3.40;99.90
24638;DHT22;12773;50.162;8.548;2023-02-11T07:43:44;3.60;99.90
24638;DHT22;12773;50.162;8.548;2023-02-11T07:46:31;3.60;99.90
24638;DHT22;12773;50.162;8.548;2023-02-11T07:49:21;3.60;99.90
24638;DHT22;12773;50.162;8.548;2023-02-11T07:52:08;3.70;99.90
24638;DHT22;12773;50.162;8.548;2023-02-11T07:54:56;3.80;99.90
24638;DHT22;12773;50.162;8.548;2023-02-11T07:57:43;3.90;99.90
24638;DHT22;12773;50.162;8.548;2023-02-11T08:00:30;4.00;99.90
24638;DHT22;12773;50.162;8.548;2023-02-11T08:03:18;4.00;99.90
24638;DHT22;12773;50.162;8.548;2023-02-11T08:06:08;4.00;99.90
24638;DHT22;12773;50.162;8.548;2023-02-11T08:08:55;4.10;99.90
24638;DHT22;12773;50.162;8.548;2023-02-11T08:11:43;4.10;99.90
24638;DHT22;12773;50.162;8.548;2023-02-11T08:14:30;4.10;99.90
24638;DHT22;12773;50.162;8.548;2023-02-11T08:17:18;4.20;99.90
24638;DHT22;12773;50.162;8.548;2023-02-11T08:20:06;4.20;99.90
24638;DHT22;12773;50.162;8.548;2023-02-11T08:22:53;4.10;99.90
24638;DHT22;12773;50.162;8.548;2023-02-11T08:25:41;4.20;99.90
24638;DHT22;12773;50.162;8.548;2023-02-11T08:28:28;4.10;99.90
24638;DHT22;12773;50.162;8.548;2023-02-11T08:31:25;4.00;99.90
24638;DHT22;12773;50.162;8.548;2023-02-11T08:34:14;4.00;99.90
24638;DHT22;12773;50.162;8.548;2023-02-11T08:37:03;4.00;99.90
24638;DHT22;12773;50.162;8.548;2023-02-11T08:39:50;4.10;99.90
24638;DHT22;12773;50.162;8.548;2023-02-11T08:42:37;4.00;99.90
24638;DHT22;12773;50.162;8.548;2023-02-11T08:45:25;3.90;99.90
24638;DHT22;12773;50.162;8.548;2023-02-11T08:48:12;3.90;99.90
24638;DHT22;12773;50.162;8.548;2023-02-11T08:51:04;4.00;99.90
24638;DHT22;12773;50.162;8.548;2023-02-11T08:53:49;4.10;99.90
24638;DHT22;12773;50.162;8.548;2023-02-11T08:56:38;4.20;99.90
24638;DHT22;12773;50.162;8.548;2023-02-11T08:59:25;4.30;99.90
24638;DHT22;12773;50.162;8.548;2023-02-11T09:02:13;4.70;99.90
24638;DHT22;12773;50.162;8.548;2023-02-11T09:05:00;5.00;99.90
24638;DHT22;12773;50.162;8.548;2023-02-11T09:07:48;5.20;99.90
24638;DHT22;12773;50.162;8.548;2023-02-11T09:10:36;5.50;99.90
24638;DHT22;12773;50.162;8.548;2023-02-11T09:13:23;5.70;99.90
24638;DHT22;12773;50.162;8.548;2023-02-11T09:16:22;5.90;99.90
24638;DHT22;12773;50.162;8.548;2023-02-11T09:19:05;6.00;99.90
24638;DHT22;12773;50.162;8.548;2023-02-11T09:21:52;6.20;99.90
24638;DHT22;12773;50.162;8.548;2023-02-11T09:24:39;6.30;99.90
24638;DHT22;12773;50.162;8.548;2023-02-11T09:27:26;6.40;99.90
24638;DHT22;12773;50.162;8.548;2023-02-11T09:30:14;6.30;99.90
24638;DHT22;12773;50.162;8.548;2023-02-11T09:33:02;6.30;99.90
24638;DHT22;12773;50.162;8.548;2023-02-11T09:35:49;6.10;99.90
24638;DHT22;12773;50.162;8.548;2023-02-11T09:38:36;6.00;99.90
24638;DHT22;12773;50.162;8.548;2023-02-11T09:41:45;5.90;99.90
24638;DHT22;12773;50.162;8.548;2023-02-11T09:44:32;5.90;99.90
24638;DHT22;12773;50.162;8.548;2023-02-11T09:47:31;5.80;99.90
24638;DHT22;12773;50.162;8.548;2023-02-11T09:50:34;5.90;99.90
24638;DHT22;12773;50.162;8.548;2023-02-11T09:53:27;5.90;99.90
24638;DHT22;12773;50.162;8.548;2023-02-11T09:56:15;5.70;99.90
24638;DHT22;12773;50.162;8.548;2023-02-11T09:59:03;5.50;99.90
24638;DHT22;12773;50.162;8.548;2023-02-11T10:02:03;5.40;99.90
24638;DHT22;12773;50.162;8.548;2023-02-11T10:05:15;5.30;99.90
24638;DHT22;12773;50.162;8.548;2023-02-11T10:08:05;5.40;99.90
24638;DHT22;12773;50.162;8.548;2023-02-11T10:11:19;5.50;99.90
24638;DHT22;12773;50.162;8.548;2023-02-11T10:17:32;5.50;99.90
24638;DHT22;12773;50.162;8.548;2023-02-11T10:20:32;5.80;99.90
24638;DHT22;12773;50.162;8.548;2023-02-11T10:23:18;6.00;99.90
24638;DHT22;12773;50.162;8.548;2023-02-11T10:26:13;5.90;99.90
24638;DHT22;12773;50.162;8.548;2023-02-11T10:29:04;5.80;99.90
24638;DHT22;12773;50.162;8.548;2023-02-11T10:31:51;5.90;99.90
24638;DHT22;12773;50.162;8.548;2023-02-11T10:34:41;6.00;99.90
24638;DHT22;12773;50.162;8.548;2023-02-11T10:37:29;6.10;99.90
24638;DHT22;12773;50.162;8.548;2023-02-11T10:40:22;6.10;99.90
24638;DHT22;12773;50.162;8.548;2023-02-11T10:43:11;6.20;99.90
24638;DHT22;12773;50.162;8.548;2023-02-11T10:45:59;6.30;99.90
24638;DHT22;12773;50.162;8.548;2023-02-11T10:48:50;6.30;99.90
24638;DHT22;12773;50.162;8.548;2023-02-11T10:51:37;6.40;99.90
24638;DHT22;12773;50.162;8.548;2023-02-11T10:54:25;6.40;99.90
24638;DHT22;12773;50.162;8.548;2023-02-11T10:57:17;6.40;99.90
24638;DHT22;12773;50.162;8.548;2023-02-11T11:03:16;6.70;99.90
24638;DHT22;12773;50.162;8.548;2023-02-11T11:06:07;6.80;99.90
24638;DHT22;12773;50.162;8.548;2023-02-11T11:08:56;6.80;99.90
24638;DHT22;12773;50.162;8.548;2023-02-11T11:11:50;7.00;99.90
24638;DHT22;12773;50.162;8.548;2023-02-11T11:14:33;7.10;99.90
24638;DHT22;12773;50.162;8.548;2023-02-11T11:17:20;7.30;99.90
24638;DHT22;12773;50.162;8.548;2023-02-11T11:20:28;7.40;99.90
24638;DHT22;12773;50.162;8.548;2023-02-11T11:23:20;7.50;99.90
24638;DHT22;12773;50.162;8.548;2023-02-11T11:26:16;7.50;99.90
24638;DHT22;12773;50.162;8.548;2023-02-11T11:29:07;7.60;99.90
24638;DHT22;12773;50.162;8.548;2023-02-11T11:31:56;7.50;99.90
24638;DHT22;12773;50.162;8.548;2023-02-11T11:35:00;7.50;99.90
24638;DHT22;12773;50.162;8.548;2023-02-11T11:38:02;7.50;99.90
24638;DHT22;12773;50.162;8.548;2023-02-11T11:47:18;7.60;99.90
24638;DHT22;12773;50.162;8.548;2023-02-11T11:59:09;8.10;99.90
24638;DHT22;12773;50.162;8.548;2023-02-11T12:05:40;8.30;99.90
24638;DHT22;12773;50.162;8.548;2023-02-11T12:08:32;8.10;99.90
24638;DHT22;12773;50.162;8.548;2023-02-11T12:11:51;8.10;99.90
24638;DHT22;12773;50.162;8.548;2023-02-11T12:14:45;8.20;99.90
24638;DHT22;12773;50.162;8.548;2023-02-11T12:23:45;8.10;99.90
24638;DHT22;12773;50.162;8.548;2023-02-11T12:29:47;8.10;99.90
24638;DHT22;12773;50.162;8.548;2023-02-11T12:32:39;8.00;99.90
24638;DHT22;12773;50.162;8.548;2023-02-11T12:35:43;8.10;99.90
24638;DHT22;12773;50.162;8.548;2023-02-11T12:38:50;8.20;99.90
24638;DHT22;12773;50.162;8.548;2023-02-11T12:45:02;8.30;99.90
24638;DHT22;12773;50.162;8.548;2023-02-11T12:48:01;8.20;99.90
24638;DHT22;12773;50.162;8.548;2023-02-11T12:57:00;8.50;99.90
24638;DHT22;12773;50.162;8.548;2023-02-11T13:00:04;8.40;99.90
24638;DHT22;12773;50.162;8.548;2023-02-11T13:03:06;8.40;99.90
24638;DHT22;12773;50.162;8.548;2023-02-11T13:06:02;8.20;99.90
24638;DHT22;12773;50.162;8.548;2023-02-11T13:08:52;8.40;99.90
24638;DHT22;12773;50.162;8.548;2023-02-11T13:11:43;8.60;99.90
24638;DHT22;12773;50.162;8.548;2023-02-11T13:14:35;8.80;99.90
24638;DHT22;12773;50.162;8.548;2023-02-11T13:17:37;8.90;99.90
24638;DHT22;12773;50.162;8.548;2023-02-11T13:30:11;8.70;99.90
24638;DHT22;12773;50.162;8.548;2023-02-11T13:38:59;8.70;99.90
24638;DHT22;12773;50.162;8.548;2023-02-11T13:41:47;8.80;99.90
24638;DHT22;12773;50.162;8.548;2023-02-11T13:44:37;8.80;99.90
24638;DHT22;12773;50.162;8.548;2023-02-11T13:47:30;8.80;99.90
24638;DHT22;12773;50.162;8.548;2023-02-11T13:50:20;8.70;99.90
24638;DHT22;12773;50.162;8.548;2023-02-11T13:53:09;8.70;99.90
24638;DHT22;12773;50.162;8.548;2023-02-11T13:56:11;8.60;99.90
24638;DHT22;12773;50.162;8.548;2023-02-11T13:59:01;8.60;99.90
24638;DHT22;12773;50.162;8.548;2023-02-11T14:08:14;8.40;99.90
24638;DHT22;12773;50.162;8.548;2023-02-11T14:14:31;8.10;99.90
24638;DHT22;12773;50.162;8.548;2023-02-11T14:17:28;8.10;99.90
24638;DHT22;12773;50.162;8.548;2023-02-11T14:20:40;8.20;99.90
24638;DHT22;12773;50.162;8.548;2023-02-11T14:23:29;8.10;99.90
24638;DHT22;12773;50.162;8.548;2023-02-11T14:29:16;8.20;99.90
24638;DHT22;12773;50.162;8.548;2023-02-11T14:35:58;8.30;99.90
24638;DHT22;12773;50.162;8.548;2023-02-11T14:42:00;8.30;99.90
24638;DHT22;12773;50.162;8.548;2023-02-11T14:44:49;8.40;99.90
24638;DHT22;12773;50.162;8.548;2023-02-11T14:47:48;8.60;99.90
24638;DHT22;12773;50.162;8.548;2023-02-11T14:50:53;8.60;99.90
24638;DHT22;12773;50.162;8.548;2023-02-11T14:53:50;8.50;99.90
24638;DHT22;12773;50.162;8.548;2023-02-11T14:56:38;8.40;99.90
24638;DHT22;12773;50.162;8.548;2023-02-11T14:59:26;8.30;99.90
24638;DHT22;12773;50.162;8.548;2023-02-11T15:02:19;8.30;99.90
24638;DHT22;12773;50.162;8.548;2023-02-11T15:05:25;8.40;99.90
24638;DHT22;12773;50.162;8.548;2023-02-11T15:08:04;8.40;99.90
24638;DHT22;12773;50.162;8.548;2023-02-11T15:10:54;8.50;99.90
24638;DHT22;12773;50.162;8.548;2023-02-11T15:13:42;8.50;99.90
24638;DHT22;12773;50.162;8.548;2023-02-11T15:16:41;8.50;99.90
24638;DHT22;12773;50.162;8.548;2023-02-11T15:19:34;8.50;99.90
24638;DHT22;12773;50.162;8.548;2023-02-11T15:22:28;8.60;99.90
24638;DHT22;12773;50.162;8.548;2023-02-11T15:25:17;8.70;99.90
24638;DHT22;12773;50.162;8.548;2023-02-11T15:28:10;8.80;99.90
24638;DHT22;12773;50.162;8.548;2023-02-11T15:33:52;8.50;99.90
24638;DHT22;12773;50.162;8.548;2023-02-11T15:36:40;8.40;99.90
24638;DHT22;12773;50.162;8.548;2023-02-11T15:39:39;8.40;99.90
24638;DHT22;12773;50.162;8.548;2023-02-11T15:42:29;8.60;99.90
24638;DHT22;12773;50.162;8.548;2023-02-11T15:45:28;8.60;99.90
24638;DHT22;12773;50.162;8.548;2023-02-11T15:48:21;8.60;99.90
24638;DHT22;12773;50.162;8.548;2023-02-11T15:51:30;8.70;99.90
24638;DHT22;12773;50.162;8.548;2023-02-11T15:54:21;8.80;99.90
24638;DHT22;12773;50.162;8.548;2023-02-11T15:57:09;8.70;99.90
24638;DHT22;12773;50.162;8.548;2023-02-11T15:59:57;8.80;99.90
24638;DHT22;12773;50.162;8.548;2023-02-11T16:02:47;8.80;99.90
24638;DHT22;12773;50.162;8.548;2023-02-11T16:05:37;8.80;99.90
24638;DHT22;12773;50.162;8.548;2023-02-11T16:08:27;8.80;99.90
24638;DHT22;12773;50.162;8.548;2023-02-11T16:11:35;8.60;99.90
24638;DHT22;12773;50.162;8.548;2023-02-11T16:14:32;8.60;99.90
24638;DHT22;12773;50.162;8.548;2023-02-11T16:17:25;8.60;99.90
24638;DHT22;12773;50.162;8.548;2023-02-11T16:20:20;8.70;99.90
24638;DHT22;12773;50.162;8.548;2023-02-11T16:23:13;8.80;99.90
24638;DHT22;12773;50.162;8.548;2023-02-11T16:26:04;8.80;99.90
24638;DHT22;12773;50.162;8.548;2023-02-11T16:32:03;8.60;99.90
24638;DHT22;12773;50.162;8.548;2023-02-11T16:34:42;8.60;99.90
24638;DHT22;12773;50.162;8.548;2023-02-11T16:37:30;8.70;99.90
24638;DHT22;12773;50.162;8.548;2023-02-11T16:40:17;8.80;99.90
24638;DHT22;12773;50.162;8.548;2023-02-11T16:43:04;8.90;99.90
24638;DHT22;12773;50.162;8.548;2023-02-11T16:45:52;9.00;99.90
24638;DHT22;12773;50.162;8.548;2023-02-11T16:48:40;9.00;99.90
24638;DHT22;12773;50.162;8.548;2023-02-11T16:51:27;8.90;99.90
24638;DHT22;12773;50.162;8.548;2023-02-11T16:54:16;8.80;99.90
24638;DHT22;12773;50.162;8.548;2023-02-11T16:57:18;8.70;99.90
24638;DHT22;12773;50.162;8.548;2023-02-11T17:00:07;8.60;99.90
24638;DHT22;12773;50.162;8.548;2023-02-11T17:02:54;8.60;99.90
24638;DHT22;12773;50.162;8.548;2023-02-11T17:05:43;8.60;99.90
24638;DHT22;12773;50.162;8.548;2023-02-11T17:08:33;8.60;99.90
24638;DHT22;12773;50.162;8.548;2023-02-11T17:11:21;8.60;99.90
24638;DHT22;12773;50.162;8.548;2023-02-11T17:14:08;8.70;99.90
24638;DHT22;12773;50.162;8.548;2023-02-11T17:16:56;8.70;99.90
24638;DHT22;12773;50.162;8.548;2023-02-11T17:19:43;8.70;99.90
24638;DHT22;12773;50.162;8.548;2023-02-11T17:22:32;8.60;99.90
24638;DHT22;12773;50.162;8.548;2023-02-11T17:25:19;8.60;99.90
24638;DHT22;12773;50.162;8.548;2023-02-11T17:28:08;8.50;99.90
24638;DHT22;12773;50.162;8.548;2023-02-11T17:30:58;8.40;99.90
24638;DHT22;12773;50.162;8.548;2023-02-11T17:33:45;8.40;99.90
24638;DHT22;12773;50.162;8.548;2023-02-11T17:36:33;8.50;99.90
24638;DHT22;12773;50.162;8.548;2023-02-11T17:39:20;8.60;99.90
24638;DHT22;12773;50.162;8.548;2023-02-11T17:42:09;8.50;99.90
24638;DHT22;12773;50.162;8.548;2023-02-11T17:44:56;8.40;99.90
24638;DHT22;12773;50.162;8.548;2023-02-11T17:47:44;8.40;99.90
24638;DHT22;12773;50.162;8.548;2023-02-11T17:50:35;8.50;99.90
24638;DHT22;12773;50.162;8.548;2023-02-11T17:53:22;8.50;99.90
24638;DHT22;12773;50.162;8.548;2023-02-11T17:56:10;8.50;99.90
24638;DHT22;12773;50.162;8.548;2023-02-11T17:58:57;8.50;99.90
24638;DHT22;12773;50.162;8.548;2023-02-11T18:01:45;8.50;99.90
24638;DHT22;12773;50.162;8.548;2023-02-11T18:04:32;8.60;99.90
24638;DHT22;12773;50.162;8.548;2023-02-11T18:07:19;8.50;99.90
24638;DHT22;12773;50.162;8.548;2023-02-11T18:10:08;8.60;99.90
24638;DHT22;12773;50.162;8.548;2023-02-11T18:12:55;8.60;99.90
24638;DHT22;12773;50.162;8.548;2023-02-11T18:15:44;8.60;99.90
24638;DHT22;12773;50.162;8.548;2023-02-11T18:18:32;8.50;99.90
24638;DHT22;12773;50.162;8.548;2023-02-11T18:21:22;8.60;99.90
24638;DHT22;12773;50.162;8.548;2023-02-11T18:24:10;8.80;99.90
24638;DHT22;12773;50.162;8.548;2023-02-11T18:26:57;9.00;99.90
24638;DHT22;12773;50.162;8.548;2023-02-11T18:29:45;9.10;99.90
24638;DHT22;12773;50.162;8.548;2023-02-11T18:32:32;9.10;99.90
24638;DHT22;12773;50.162;8.548;2023-02-11T18:35:20;9.10;99.90
24638;DHT22;12773;50.162;8.548;2023-02-11T18:38:08;9.00;99.90
24638;DHT22;12773;50.162;8.548;2023-02-11T18:40:56;8.80;99.90
24638;DHT22;12773;50.162;8.548;2023-02-11T18:43:44;8.70;99.90
24638;DHT22;12773;50.162;8.548;2023-02-11T18:46:32;8.70;99.90
24638;DHT22;12773;50.162;8.548;2023-02-11T18:49:20;8.90;99.90
24638;DHT22;12773;50.162;8.548;2023-02-11T18:52:07;9.10;99.90
24638;DHT22;12773;50.162;8.548;2023-02-11T18:54:54;9.20;99.90
24638;DHT22;12773;50.162;8.548;2023-02-11T18:57:41;9.30;99.90
24638;DHT22;12773;50.162;8.548;2023-02-11T19:00:29;9.40;99.90
24638;DHT22;12773;50.162;8.548;2023-02-11T19:03:16;9.50;99.90
24638;DHT22;12773;50.162;8.548;2023-02-11T19:06:04;9.40;99.90
24638;DHT22;12773;50.162;8.548;2023-02-11T19:08:53;9.30;99.90
24638;DHT22;12773;50.162;8.548;2023-02-11T19:11:43;9.40;99.90
24638;DHT22;12773;50.162;8.548;2023-02-11T19:14:32;9.30;99.90
24638;DHT22;12773;50.162;8.548;2023-02-11T19:17:19;9.10;99.90
24638;DHT22;12773;50.162;8.548;2023-02-11T19:20:07;9.10;99.90
24638;DHT22;12773;50.162;8.548;2023-02-11T19:22:56;9.00;99.90
24638;DHT22;12773;50.162;8.548;2023-02-11T19:25:46;8.90;99.90
24638;DHT22;12773;50.162;8.548;2023-02-11T19:28:34;8.90;99.90
24638;DHT22;12773;50.162;8.548;2023-02-11T19:31:23;9.10;99.90
24638;DHT22;12773;50.162;8.548;2023-02-11T19:34:11;9.20;99.90
24638;DHT22;12773;50.162;8.548;2023-02-11T19:36:59;9.20;99.90
24638;DHT22;12773;50.162;8.548;2023-02-11T19:39:48;9.30;99.90
24638;DHT22;12773;50.162;8.548;2023-02-11T19:42:35;9.30;99.90
24638;DHT22;12773;50.162;8.548;2023-02-11T19:45:23;9.30;99.90
24638;DHT22;12773;50.162;8.548;2023-02-11T19:48:12;9.20;99.90
24638;DHT22;12773;50.162;8.548;2023-02-11T19:51:07;9.10;99.90
24638;DHT22;12773;50.162;8.548;2023-02-11T19:53:59;9.10;99.90
24638;DHT22;12773;50.162;8.548;2023-02-11T19:56:47;9.00;99.90
24638;DHT22;12773;50.162;8.548;2023-02-11T19:59:34;8.90;99.90